sensor_id;sensor_type;location;lat;lon;timestamp;pressure;altitude;pressure_sealevel;temperature;humidity
48846;BME280;34665;51.886;5.436;2023-04-30T00:00:39;102169.22;;;20.87;57.13
48846;BME280;34665;51.886;5.436;2023-04-30T00:03:05;102164.84;;;20.86;57.04
48846;BME280;34665;51.886;5.436;2023-04-30T00:05:30;102168.31;;;21.05;56.35
48846;BME280;34665;51.886;5.436;2023-04-30T00:07:56;102167.78;;;20.84;57.10
48846;BME280;34665;51.886;5.436;2023-04-30T00:10:21;102163.22;;;20.66;57.57
48846;BME280;34665;51.886;5.436;2023-04-30T00:12:46;102171.25;;;20.61;57.95
48846;BME280;34665;51.886;5.436;2023-04-30T00:15:11;102171.47;;;20.59;58.23
48846;BME280;34665;51.886;5.436;2023-04-30T00:17:37;102169.75;;;20.46;58.54
48846;BME280;34665;51.886;5.436;2023-04-30T00:20:02;102168.47;;;20.49;58.49
48846;BME280;34665;51.886;5.436;2023-04-30T00:22:28;102169.75;;;20.46;58.93
48846;BME280;34665;51.886;5.436;2023-04-30T00:24:54;102161.78;;;20.63;58.90
48846;BME280;34665;51.886;5.436;2023-04-30T00:27:19;102175.72;;;20.37;59.12
48846;BME280;34665;51.886;5.436;2023-04-30T00:29:45;102168.81;;;20.53;59.04
48846;BME280;34665;51.886;5.436;2023-04-30T00:32:10;102174.00;;;20.42;58.89
48846;BME280;34665;51.886;5.436;2023-04-30T00:34:35;102173.78;;;20.44;59.48
48846;BME280;34665;51.886;5.436;2023-04-30T00:37:01;102173.19;;;20.23;59.73
48846;BME280;34665;51.886;5.436;2023-04-30T00:39:27;102172.13;;;20.24;59.80
48846;BME280;34665;51.886;5.436;2023-04-30T00:41:52;102177.03;;;20.34;59.88
48846;BME280;34665;51.886;5.436;2023-04-30T00:44:18;102177.25;;;20.14;60.12
48846;BME280;34665;51.886;5.436;2023-04-30T00:46:43;102181.56;;;20.03;60.34
48846;BME280;34665;51.886;5.436;2023-04-30T00:49:08;102185.94;;;20.23;59.55
48846;BME280;34665;51.886;5.436;2023-04-30T00:51:34;102188.19;;;20.26;59.60
48846;BME280;34665;51.886;5.436;2023-04-30T00:54:00;102187.66;;;20.17;60.08
48846;BME280;34665;51.886;5.436;2023-04-30T00:56:26;102190.38;;;20.66;58.85
48846;BME280;34665;51.886;5.436;2023-04-30T00:58:52;102193.09;;;20.17;59.69
48846;BME280;34665;51.886;5.436;2023-04-30T01:01:25;102187.59;;;20.05;60.19
48846;BME280;34665;51.886;5.436;2023-04-30T01:03:50;102183.81;;;19.87;60.77
48846;BME280;34665;51.886;5.436;2023-04-30T01:06:17;102190.47;;;19.91;60.65
48846;BME280;34665;51.886;5.436;2023-04-30T01:08:42;102183.16;;;20.11;61.03
48846;BME280;34665;51.886;5.436;2023-04-30T01:11:24;102188.47;;;20.55;59.69
48846;BME280;34665;51.886;5.436;2023-04-30T01:16:42;102181.28;;;20.30;59.56
48846;BME280;34665;51.886;5.436;2023-04-30T01:19:19;102185.31;;;20.39;59.64
48846;BME280;34665;51.886;5.436;2023-04-30T01:21:52;102182.81;;;20.07;60.19
48846;BME280;34665;51.886;5.436;2023-04-30T01:24:23;102181.28;;;19.92;61.39
48846;BME280;34665;51.886;5.436;2023-04-30T01:26:59;102176.94;;;19.85;61.63
48846;BME280;34665;51.886;5.436;2023-04-30T01:29:31;102181.38;;;19.79;62.24
48846;BME280;34665;51.886;5.436;2023-04-30T01:31:56;102176.56;;;19.62;63.15
48846;BME280;34665;51.886;5.436;2023-04-30T01:34:22;102172.09;;;19.49;63.90
48846;BME280;34665;51.886;5.436;2023-04-30T01:36:53;102171.03;;;19.69;63.46
48846;BME280;34665;51.886;5.436;2023-04-30T01:44:23;102174.47;;;20.02;62.11
48846;BME280;34665;51.886;5.436;2023-04-30T01:49:35;102174.34;;;19.97;62.81
48846;BME280;34665;51.886;5.436;2023-04-30T01:52:16;102182.72;;;19.70;63.07
48846;BME280;34665;51.886;5.436;2023-04-30T01:54:50;102187.41;;;19.62;63.38
48846;BME280;34665;51.886;5.436;2023-04-30T01:57:38;102183.31;;;19.97;62.23
48846;BME280;34665;51.886;5.436;2023-04-30T02:00:02;102185.00;;;19.73;62.65
48846;BME280;34665;51.886;5.436;2023-04-30T02:02:38;102186.91;;;19.72;62.80
48846;BME280;34665;51.886;5.436;2023-04-30T02:05:04;102183.22;;;19.85;61.60
48846;BME280;34665;51.886;5.436;2023-04-30T02:07:39;102186.03;;;19.53;62.71
48846;BME280;34665;51.886;5.436;2023-04-30T02:10:07;102187.97;;;19.46;63.51
48846;BME280;34665;51.886;5.436;2023-04-30T02:12:33;102187.63;;;19.35;63.67
48846;BME280;34665;51.886;5.436;2023-04-30T02:14:59;102185.97;;;19.34;64.00
48846;BME280;34665;51.886;5.436;2023-04-30T02:17:25;102191.69;;;19.26;64.53
48846;BME280;34665;51.886;5.436;2023-04-30T02:19:50;102188.88;;;19.40;64.02
48846;BME280;34665;51.886;5.436;2023-04-30T02:22:15;102186.16;;;19.40;63.56
48846;BME280;34665;51.886;5.436;2023-04-30T02:24:41;102184.53;;;19.32;63.54
48846;BME280;34665;51.886;5.436;2023-04-30T02:27:06;102184.66;;;20.06;61.79
48846;BME280;34665;51.886;5.436;2023-04-30T02:29:33;102185.78;;;19.99;61.66
48846;BME280;34665;51.886;5.436;2023-04-30T02:31:58;102191.97;;;20.06;61.38
48846;BME280;34665;51.886;5.436;2023-04-30T02:34:24;102190.63;;;20.15;61.03
48846;BME280;34665;51.886;5.436;2023-04-30T02:36:50;102184.69;;;19.37;62.83
48846;BME280;34665;51.886;5.436;2023-04-30T02:39:15;102190.31;;;20.24;60.78
48846;BME280;34665;51.886;5.436;2023-04-30T02:41:41;102181.53;;;19.66;61.60
48846;BME280;34665;51.886;5.436;2023-04-30T02:44:07;102186.53;;;19.18;64.65
48846;BME280;34665;51.886;5.436;2023-04-30T02:46:32;102184.75;;;19.30;63.30
48846;BME280;34665;51.886;5.436;2023-04-30T02:48:58;102183.94;;;19.30;63.85
48846;BME280;34665;51.886;5.436;2023-04-30T02:51:24;102181.59;;;19.33;63.11
48846;BME280;34665;51.886;5.436;2023-04-30T02:53:49;102178.91;;;18.69;65.65
48846;BME280;34665;51.886;5.436;2023-04-30T02:56:16;102184.13;;;18.18;68.09
48846;BME280;34665;51.886;5.436;2023-04-30T02:58:41;102181.47;;;18.12;68.63
48846;BME280;34665;51.886;5.436;2023-04-30T03:01:07;102182.50;;;17.90;69.94
48846;BME280;34665;51.886;5.436;2023-04-30T03:03:32;102178.34;;;18.08;69.74
48846;BME280;34665;51.886;5.436;2023-04-30T03:05:57;102181.41;;;18.18;70.03
48846;BME280;34665;51.886;5.436;2023-04-30T03:08:24;102184.00;;;19.23;65.50
48846;BME280;34665;51.886;5.436;2023-04-30T03:10:50;102186.31;;;19.45;64.36
48846;BME280;34665;51.886;5.436;2023-04-30T03:13:15;102184.25;;;19.40;64.23
48846;BME280;34665;51.886;5.436;2023-04-30T03:15:41;102191.22;;;19.29;63.80
48846;BME280;34665;51.886;5.436;2023-04-30T03:18:07;102194.19;;;19.72;62.67
48846;BME280;34665;51.886;5.436;2023-04-30T03:20:32;102193.44;;;19.65;62.36
48846;BME280;34665;51.886;5.436;2023-04-30T03:22:58;102186.97;;;19.66;62.66
48846;BME280;34665;51.886;5.436;2023-04-30T03:25:23;102182.69;;;19.76;62.25
48846;BME280;34665;51.886;5.436;2023-04-30T03:27:49;102169.81;;;19.21;64.23
48846;BME280;34665;51.886;5.436;2023-04-30T03:30:15;102179.16;;;19.51;62.71
48846;BME280;34665;51.886;5.436;2023-04-30T03:32:41;102173.91;;;19.30;63.66
48846;BME280;34665;51.886;5.436;2023-04-30T03:35:06;102184.41;;;20.45;60.57
48846;BME280;34665;51.886;5.436;2023-04-30T03:37:32;102176.28;;;20.27;59.04
48846;BME280;34665;51.886;5.436;2023-04-30T03:39:58;102168.41;;;19.12;63.09
48846;BME280;34665;51.886;5.436;2023-04-30T03:42:25;102171.34;;;18.39;65.43
48846;BME280;34665;51.886;5.436;2023-04-30T03:44:50;102167.31;;;17.89;68.97
48846;BME280;34665;51.886;5.436;2023-04-30T03:47:16;102172.97;;;17.81;69.38
48846;BME280;34665;51.886;5.436;2023-04-30T03:49:42;102165.94;;;17.46;72.31
48846;BME280;34665;51.886;5.436;2023-04-30T03:52:08;102171.97;;;17.55;72.13
48846;BME280;34665;51.886;5.436;2023-04-30T03:54:33;102170.22;;;17.95;71.01
48846;BME280;34665;51.886;5.436;2023-04-30T03:57:00;102170.22;;;17.95;70.05
48846;BME280;34665;51.886;5.436;2023-04-30T03:59:30;102168.56;;;17.87;70.53
48846;BME280;34665;51.886;5.436;2023-04-30T04:01:56;102170.69;;;18.83;66.57
48846;BME280;34665;51.886;5.436;2023-04-30T04:04:21;102169.25;;;17.62;71.24
48846;BME280;34665;51.886;5.436;2023-04-30T04:06:46;102166.72;;;17.74;70.94
48846;BME280;34665;51.886;5.436;2023-04-30T04:09:12;102174.81;;;17.94;70.37
48846;BME280;34665;51.886;5.436;2023-04-30T04:11:40;102178.94;;;18.62;69.20
48846;BME280;34665;51.886;5.436;2023-04-30T04:14:06;102183.53;;;19.26;65.34
48846;BME280;34665;51.886;5.436;2023-04-30T04:16:31;102182.44;;;18.31;67.04
48846;BME280;34665;51.886;5.436;2023-04-30T04:18:57;102180.47;;;17.79;70.59
48846;BME280;34665;51.886;5.436;2023-04-30T04:21:22;102186.09;;;17.71;71.55
48846;BME280;34665;51.886;5.436;2023-04-30T04:23:48;102184.84;;;17.80;71.36
48846;BME280;34665;51.886;5.436;2023-04-30T04:26:14;102186.31;;;17.56;72.53
48846;BME280;34665;51.886;5.436;2023-04-30T04:28:41;102179.06;;;17.56;72.94
48846;BME280;34665;51.886;5.436;2023-04-30T04:31:07;102183.84;;;17.54;73.34
48846;BME280;34665;51.886;5.436;2023-04-30T04:33:32;102178.81;;;17.51;73.59
48846;BME280;34665;51.886;5.436;2023-04-30T04:35:58;102179.47;;;17.53;73.50
48846;BME280;34665;51.886;5.436;2023-04-30T04:38:24;102184.59;;;17.88;73.98
48846;BME280;34665;51.886;5.436;2023-04-30T04:40:53;102182.41;;;18.76;69.78
48846;BME280;34665;51.886;5.436;2023-04-30T04:43:19;102179.91;;;18.75;68.78
48846;BME280;34665;51.886;5.436;2023-04-30T04:45:45;102180.06;;;17.75;74.07
48846;BME280;34665;51.886;5.436;2023-04-30T04:48:12;102188.41;;;17.60;74.48
48846;BME280;34665;51.886;5.436;2023-04-30T04:50:38;102184.03;;;17.59;74.79
48846;BME280;34665;51.886;5.436;2023-04-30T04:53:04;102185.91;;;17.66;75.06
48846;BME280;34665;51.886;5.436;2023-04-30T04:55:30;102187.91;;;17.97;74.69
48846;BME280;34665;51.886;5.436;2023-04-30T04:57:56;102191.63;;;18.16;73.88
48846;BME280;34665;51.886;5.436;2023-04-30T05:00:22;102197.34;;;18.47;72.83
48846;BME280;34665;51.886;5.436;2023-04-30T05:02:48;102194.81;;;18.52;71.81
48846;BME280;34665;51.886;5.436;2023-04-30T05:05:14;102202.13;;;18.52;72.69
48846;BME280;34665;51.886;5.436;2023-04-30T05:07:40;102203.72;;;19.05;70.45
48846;BME280;34665;51.886;5.436;2023-04-30T05:10:06;102199.44;;;18.84;71.19
48846;BME280;34665;51.886;5.436;2023-04-30T05:12:32;102193.75;;;18.99;71.33
48846;BME280;34665;51.886;5.436;2023-04-30T05:14:57;102199.63;;;18.89;70.86
48846;BME280;34665;51.886;5.436;2023-04-30T05:17:23;102196.44;;;18.60;72.93
48846;BME280;34665;51.886;5.436;2023-04-30T05:19:51;102189.31;;;18.72;72.66
48846;BME280;34665;51.886;5.436;2023-04-30T05:22:16;102197.25;;;19.06;71.15
48846;BME280;34665;51.886;5.436;2023-04-30T05:24:42;102196.28;;;18.87;71.57
48846;BME280;34665;51.886;5.436;2023-04-30T05:27:07;102188.63;;;18.77;71.70
48846;BME280;34665;51.886;5.436;2023-04-30T05:29:33;102192.28;;;18.96;71.03
48846;BME280;34665;51.886;5.436;2023-04-30T05:31:58;102200.41;;;19.28;69.99
48846;BME280;34665;51.886;5.436;2023-04-30T05:34:23;102190.66;;;18.88;70.73
48846;BME280;34665;51.886;5.436;2023-04-30T05:36:49;102193.63;;;18.41;72.79
48846;BME280;34665;51.886;5.436;2023-04-30T05:39:15;102184.81;;;18.59;72.56
48846;BME280;34665;51.886;5.436;2023-04-30T05:41:40;102196.72;;;18.84;72.11
48846;BME280;34665;51.886;5.436;2023-04-30T05:44:06;102190.16;;;18.66;71.97
48846;BME280;34665;51.886;5.436;2023-04-30T05:46:31;102201.28;;;18.90;71.34
48846;BME280;34665;51.886;5.436;2023-04-30T05:48:57;102193.16;;;18.90;71.23
48846;BME280;34665;51.886;5.436;2023-04-30T05:51:22;102194.31;;;19.08;70.46
48846;BME280;34665;51.886;5.436;2023-04-30T05:53:47;102194.50;;;19.82;68.10
48846;BME280;34665;51.886;5.436;2023-04-30T05:56:13;102192.53;;;19.27;69.73
48846;BME280;34665;51.886;5.436;2023-04-30T05:58:38;102194.28;;;19.40;69.12
48846;BME280;34665;51.886;5.436;2023-04-30T06:01:04;102198.66;;;19.15;70.18
48846;BME280;34665;51.886;5.436;2023-04-30T06:03:29;102192.22;;;19.35;69.66
48846;BME280;34665;51.886;5.436;2023-04-30T06:05:55;102200.88;;;19.51;69.04
48846;BME280;34665;51.886;5.436;2023-04-30T06:08:20;102197.56;;;19.92;67.91
48846;BME280;34665;51.886;5.436;2023-04-30T06:10:46;102197.50;;;19.74;67.89
48846;BME280;34665;51.886;5.436;2023-04-30T06:13:11;102195.84;;;19.73;68.21
48846;BME280;34665;51.886;5.436;2023-04-30T06:15:38;102202.41;;;19.65;68.76
48846;BME280;34665;51.886;5.436;2023-04-30T06:18:04;102196.22;;;19.32;70.50
48846;BME280;34665;51.886;5.436;2023-04-30T06:20:29;102199.22;;;19.49;69.99
48846;BME280;34665;51.886;5.436;2023-04-30T06:22:55;102199.13;;;19.56;70.25
48846;BME280;34665;51.886;5.436;2023-04-30T06:25:20;102202.94;;;19.74;69.25
48846;BME280;34665;51.886;5.436;2023-04-30T06:27:45;102194.22;;;19.46;70.50
48846;BME280;34665;51.886;5.436;2023-04-30T06:30:10;102193.91;;;19.36;71.30
48846;BME280;34665;51.886;5.436;2023-04-30T06:32:36;102197.66;;;19.35;71.50
48846;BME280;34665;51.886;5.436;2023-04-30T06:35:02;102195.25;;;19.96;70.01
48846;BME280;34665;51.886;5.436;2023-04-30T06:37:27;102206.00;;;20.40;69.11
48846;BME280;34665;51.886;5.436;2023-04-30T06:39:52;102205.66;;;20.48;68.59
48846;BME280;34665;51.886;5.436;2023-04-30T06:42:17;102203.63;;;20.93;67.60
48846;BME280;34665;51.886;5.436;2023-04-30T06:44:43;102206.09;;;20.64;68.16
48846;BME280;34665;51.886;5.436;2023-04-30T06:47:09;102213.78;;;20.67;67.56
48846;BME280;34665;51.886;5.436;2023-04-30T06:49:35;102212.13;;;20.66;68.13
48846;BME280;34665;51.886;5.436;2023-04-30T06:52:00;102213.91;;;20.91;67.49
48846;BME280;34665;51.886;5.436;2023-04-30T06:54:26;102212.53;;;21.00;66.53
48846;BME280;34665;51.886;5.436;2023-04-30T06:56:52;102217.31;;;20.86;66.04
48846;BME280;34665;51.886;5.436;2023-04-30T06:59:18;102215.00;;;21.02;65.80
48846;BME280;34665;51.886;5.436;2023-04-30T07:01:43;102222.56;;;21.00;65.69
48846;BME280;34665;51.886;5.436;2023-04-30T07:04:08;102215.72;;;21.09;65.46
48846;BME280;34665;51.886;5.436;2023-04-30T07:06:34;102227.63;;;20.96;65.43
48846;BME280;34665;51.886;5.436;2023-04-30T07:09:00;102225.25;;;20.88;65.78
48846;BME280;34665;51.886;5.436;2023-04-30T07:11:26;102231.75;;;20.87;65.93
48846;BME280;34665;51.886;5.436;2023-04-30T07:13:51;102232.69;;;20.62;66.00
48846;BME280;34665;51.886;5.436;2023-04-30T07:16:18;102237.31;;;21.46;64.21
48846;BME280;34665;51.886;5.436;2023-04-30T07:18:43;102232.09;;;21.45;63.93
48846;BME280;34665;51.886;5.436;2023-04-30T07:21:09;102234.97;;;21.50;63.44
48846;BME280;34665;51.886;5.436;2023-04-30T07:23:34;102236.72;;;21.32;64.01
48846;BME280;34665;51.886;5.436;2023-04-30T07:26:00;102235.72;;;21.81;63.07
48846;BME280;34665;51.886;5.436;2023-04-30T07:28:25;102229.44;;;21.92;62.60
48846;BME280;34665;51.886;5.436;2023-04-30T07:30:51;102223.53;;;21.72;62.90
48846;BME280;34665;51.886;5.436;2023-04-30T07:33:17;102233.09;;;21.74;63.09
48846;BME280;34665;51.886;5.436;2023-04-30T07:35:42;102220.56;;;21.73;62.97
48846;BME280;34665;51.886;5.436;2023-04-30T07:38:08;102221.94;;;21.64;63.38
48846;BME280;34665;51.886;5.436;2023-04-30T07:40:33;102226.81;;;21.98;62.72
48846;BME280;34665;51.886;5.436;2023-04-30T07:42:58;102223.50;;;21.96;62.70
48846;BME280;34665;51.886;5.436;2023-04-30T07:45:24;102219.38;;;21.69;63.08
48846;BME280;34665;51.886;5.436;2023-04-30T07:47:49;102222.19;;;21.86;62.45
48846;BME280;34665;51.886;5.436;2023-04-30T07:50:15;102222.75;;;22.12;61.36
48846;BME280;34665;51.886;5.436;2023-04-30T07:52:41;102223.59;;;22.13;61.94
48846;BME280;34665;51.886;5.436;2023-04-30T07:55:07;102231.88;;;22.18;62.11
48846;BME280;34665;51.886;5.436;2023-04-30T07:57:32;102222.69;;;22.48;61.36
48846;BME280;34665;51.886;5.436;2023-04-30T07:59:57;102230.41;;;22.39;61.30
48846;BME280;34665;51.886;5.436;2023-04-30T08:02:23;102230.72;;;22.55;60.83
48846;BME280;34665;51.886;5.436;2023-04-30T08:04:48;102228.97;;;22.48;60.84
48846;BME280;34665;51.886;5.436;2023-04-30T08:07:14;102234.16;;;22.62;60.21
48846;BME280;34665;51.886;5.436;2023-04-30T08:09:42;102232.50;;;22.61;60.29
48846;BME280;34665;51.886;5.436;2023-04-30T08:12:07;102236.31;;;22.48;60.75
48846;BME280;34665;51.886;5.436;2023-04-30T08:14:33;102232.09;;;22.69;60.46
48846;BME280;34665;51.886;5.436;2023-04-30T08:17:00;102238.66;;;22.85;59.83
48846;BME280;34665;51.886;5.436;2023-04-30T08:19:26;102237.19;;;22.95;59.20
48846;BME280;34665;51.886;5.436;2023-04-30T08:21:52;102244.72;;;23.04;59.21
48846;BME280;34665;51.886;5.436;2023-04-30T08:24:17;102245.16;;;23.13;58.61
48846;BME280;34665;51.886;5.436;2023-04-30T08:26:43;102239.03;;;23.23;58.84
48846;BME280;34665;51.886;5.436;2023-04-30T08:29:08;102246.56;;;23.16;58.52
48846;BME280;34665;51.886;5.436;2023-04-30T08:31:33;102241.75;;;23.06;59.27
48846;BME280;34665;51.886;5.436;2023-04-30T08:33:59;102245.41;;;23.12;58.60
48846;BME280;34665;51.886;5.436;2023-04-30T08:36:24;102240.47;;;23.77;57.59
48846;BME280;34665;51.886;5.436;2023-04-30T08:38:50;102243.16;;;23.94;56.71
48846;BME280;34665;51.886;5.436;2023-04-30T08:41:16;102238.38;;;23.84;56.95
48846;BME280;34665;51.886;5.436;2023-04-30T08:43:43;102241.50;;;23.93;56.94
48846;BME280;34665;51.886;5.436;2023-04-30T08:46:10;102240.16;;;23.96;57.06
48846;BME280;34665;51.886;5.436;2023-04-30T08:48:37;102244.84;;;24.17;56.68
48846;BME280;34665;51.886;5.436;2023-04-30T08:51:03;102236.91;;;23.99;56.84
48846;BME280;34665;51.886;5.436;2023-04-30T08:53:29;102245.63;;;23.96;56.86
48846;BME280;34665;51.886;5.436;2023-04-30T08:55:55;102238.03;;;23.81;56.41
48846;BME280;34665;51.886;5.436;2023-04-30T08:58:21;102243.06;;;24.06;56.55
48846;BME280;34665;51.886;5.436;2023-04-30T09:00:46;102245.16;;;24.21;55.77
48846;BME280;34665;51.886;5.436;2023-04-30T09:03:12;102239.78;;;24.04;55.97
48846;BME280;34665;51.886;5.436;2023-04-30T09:05:38;102245.09;;;24.38;55.64
48846;BME280;34665;51.886;5.436;2023-04-30T09:08:05;102241.06;;;24.68;55.19
48846;BME280;34665;51.886;5.436;2023-04-30T09:10:31;102241.38;;;24.94;54.20
48846;BME280;34665;51.886;5.436;2023-04-30T09:13:03;102239.06;;;25.13;53.90
48846;BME280;34665;51.886;5.436;2023-04-30T09:15:29;102234.84;;;25.00;54.06
48846;BME280;34665;51.886;5.436;2023-04-30T09:18:15;102235.06;;;25.26;54.09
48846;BME280;34665;51.886;5.436;2023-04-30T09:20:56;102237.16;;;25.89;52.48
48846;BME280;34665;51.886;5.436;2023-04-30T09:23:22;102245.94;;;26.50;50.99
48846;BME280;34665;51.886;5.436;2023-04-30T09:25:48;102239.72;;;26.96;49.64
48846;BME280;34665;51.886;5.436;2023-04-30T09:28:13;102247.13;;;27.63;48.33
48846;BME280;34665;51.886;5.436;2023-04-30T09:30:39;102238.94;;;28.34;47.09
48846;BME280;34665;51.886;5.436;2023-04-30T09:33:05;102244.50;;;28.69;45.59
48846;BME280;34665;51.886;5.436;2023-04-30T09:35:31;102242.53;;;28.80;45.29
48846;BME280;34665;51.886;5.436;2023-04-30T09:38:01;102246.09;;;29.20;44.80
48846;BME280;34665;51.886;5.436;2023-04-30T09:40:40;102241.31;;;29.60;43.63
48846;BME280;34665;51.886;5.436;2023-04-30T09:43:06;102238.00;;;30.31;42.66
48846;BME280;34665;51.886;5.436;2023-04-30T09:45:41;102237.66;;;30.76;41.98
48846;BME280;34665;51.886;5.436;2023-04-30T09:48:07;102246.09;;;31.66;40.08
48846;BME280;34665;51.886;5.436;2023-04-30T09:50:36;102241.38;;;31.66;39.57
48846;BME280;34665;51.886;5.436;2023-04-30T09:53:05;102241.41;;;31.80;38.95
48846;BME280;34665;51.886;5.436;2023-04-30T09:55:32;102234.16;;;32.49;38.23
48846;BME280;34665;51.886;5.436;2023-04-30T09:57:58;102237.69;;;33.00;37.54
48846;BME280;34665;51.886;5.436;2023-04-30T10:00:24;102235.09;;;33.36;36.00
48846;BME280;34665;51.886;5.436;2023-04-30T10:02:50;102233.75;;;33.24;35.64
48846;BME280;34665;51.886;5.436;2023-04-30T10:05:15;102237.84;;;33.36;35.79
48846;BME280;34665;51.886;5.436;2023-04-30T10:07:41;102229.38;;;33.41;35.66
48846;BME280;34665;51.886;5.436;2023-04-30T10:10:07;102236.50;;;34.05;34.40
48846;BME280;34665;51.886;5.436;2023-04-30T10:12:38;102228.53;;;34.39;34.09
48846;BME280;34665;51.886;5.436;2023-04-30T10:15:07;102230.09;;;35.28;32.46
48846;BME280;34665;51.886;5.436;2023-04-30T10:17:34;102228.09;;;35.37;32.36
48846;BME280;34665;51.886;5.436;2023-04-30T10:20:05;102220.63;;;35.68;32.06
48846;BME280;34665;51.886;5.436;2023-04-30T10:22:31;102228.38;;;35.83;31.21
48846;BME280;34665;51.886;5.436;2023-04-30T10:24:58;102223.69;;;36.05;31.12
48846;BME280;34665;51.886;5.436;2023-04-30T10:27:23;102213.66;;;35.83;31.33
48846;BME280;34665;51.886;5.436;2023-04-30T10:29:49;102225.50;;;36.43;30.77
48846;BME280;34665;51.886;5.436;2023-04-30T10:32:15;102218.25;;;36.30;30.00
48846;BME280;34665;51.886;5.436;2023-04-30T10:37:30;102220.28;;;36.21;29.86
48846;BME280;34665;51.886;5.436;2023-04-30T10:39:58;102228.56;;;36.51;29.53
48846;BME280;34665;51.886;5.436;2023-04-30T10:42:26;102215.47;;;36.85;29.32
48846;BME280;34665;51.886;5.436;2023-04-30T10:44:52;102223.13;;;37.09;29.01
48846;BME280;34665;51.886;5.436;2023-04-30T10:47:17;102214.53;;;37.27;29.20
48846;BME280;34665;51.886;5.436;2023-04-30T10:49:48;102217.44;;;37.18;28.82
48846;BME280;34665;51.886;5.436;2023-04-30T10:52:13;102216.75;;;37.58;27.95
48846;BME280;34665;51.886;5.436;2023-04-30T10:54:39;102215.81;;;37.79;28.38
48846;BME280;34665;51.886;5.436;2023-04-30T10:57:14;102202.69;;;37.67;28.42
48846;BME280;34665;51.886;5.436;2023-04-30T10:59:42;102206.56;;;37.63;28.01
48846;BME280;34665;51.886;5.436;2023-04-30T11:02:09;102206.50;;;38.00;27.95
48846;BME280;34665;51.886;5.436;2023-04-30T11:04:40;102204.03;;;38.11;27.72
48846;BME280;34665;51.886;5.436;2023-04-30T11:07:20;102206.75;;;38.64;27.43
48846;BME280;34665;51.886;5.436;2023-04-30T11:09:49;102200.69;;;39.07;26.72
48846;BME280;34665;51.886;5.436;2023-04-30T11:12:19;102194.38;;;39.10;26.97
48846;BME280;34665;51.886;5.436;2023-04-30T11:14:54;102188.72;;;39.38;26.11
48846;BME280;34665;51.886;5.436;2023-04-30T11:17:22;102186.91;;;39.66;26.77
48846;BME280;34665;51.886;5.436;2023-04-30T11:19:49;102178.25;;;39.71;26.49
48846;BME280;34665;51.886;5.436;2023-04-30T11:22:15;102185.63;;;39.79;26.57
48846;BME280;34665;51.886;5.436;2023-04-30T11:27:22;102187.72;;;39.82;25.84
48846;BME280;34665;51.886;5.436;2023-04-30T11:29:48;102172.06;;;39.81;25.94
48846;BME280;34665;51.886;5.436;2023-04-30T11:32:13;102175.50;;;40.30;25.35
48846;BME280;34665;51.886;5.436;2023-04-30T11:34:42;102180.97;;;41.12;24.95
48846;BME280;34665;51.886;5.436;2023-04-30T11:37:08;102167.97;;;41.00;24.14
48846;BME280;34665;51.886;5.436;2023-04-30T11:39:34;102166.19;;;41.39;24.71
48846;BME280;34665;51.886;5.436;2023-04-30T11:42:00;102163.72;;;41.34;24.55
48846;BME280;34665;51.886;5.436;2023-04-30T11:44:27;102161.97;;;41.79;23.53
48846;BME280;34665;51.886;5.436;2023-04-30T11:46:53;102162.03;;;41.87;23.91
48846;BME280;34665;51.886;5.436;2023-04-30T11:49:21;102162.53;;;41.96;23.40
48846;BME280;34665;51.886;5.436;2023-04-30T11:51:47;102150.97;;;42.35;23.13
48846;BME280;34665;51.886;5.436;2023-04-30T11:54:13;102153.44;;;42.03;23.82
48846;BME280;34665;51.886;5.436;2023-04-30T11:56:39;102146.63;;;42.04;23.19
48846;BME280;34665;51.886;5.436;2023-04-30T11:59:11;102147.66;;;42.64;22.48
48846;BME280;34665;51.886;5.436;2023-04-30T12:01:36;102143.25;;;42.25;22.99
48846;BME280;34665;51.886;5.436;2023-04-30T12:04:02;102140.88;;;42.72;22.18
48846;BME280;34665;51.886;5.436;2023-04-30T12:06:28;102148.63;;;42.86;22.29
48846;BME280;34665;51.886;5.436;2023-04-30T12:08:56;102141.53;;;42.99;22.34
48846;BME280;34665;51.886;5.436;2023-04-30T12:11:25;102137.75;;;42.81;22.55
48846;BME280;34665;51.886;5.436;2023-04-30T12:13:54;102135.31;;;43.32;22.35
48846;BME280;34665;51.886;5.436;2023-04-30T12:16:20;102144.59;;;42.83;21.75
48846;BME280;34665;51.886;5.436;2023-04-30T12:18:46;102138.91;;;42.76;22.06
48846;BME280;34665;51.886;5.436;2023-04-30T12:21:11;102133.09;;;42.99;21.45
48846;BME280;34665;51.886;5.436;2023-04-30T12:23:37;102134.47;;;43.27;21.70
48846;BME280;34665;51.886;5.436;2023-04-30T12:26:02;102136.56;;;43.34;21.15
48846;BME280;34665;51.886;5.436;2023-04-30T12:28:28;102132.66;;;42.94;21.99
48846;BME280;34665;51.886;5.436;2023-04-30T12:30:53;102127.81;;;43.54;21.47
48846;BME280;34665;51.886;5.436;2023-04-30T12:33:19;102127.94;;;43.79;20.96
48846;BME280;34665;51.886;5.436;2023-04-30T12:35:44;102122.31;;;43.83;21.07
48846;BME280;34665;51.886;5.436;2023-04-30T12:38:12;102125.19;;;43.97;20.85
48846;BME280;34665;51.886;5.436;2023-04-30T12:40:45;102112.25;;;43.89;21.35
48846;BME280;34665;51.886;5.436;2023-04-30T12:43:13;102113.97;;;44.16;20.70
48846;BME280;34665;51.886;5.436;2023-04-30T12:45:48;102105.94;;;44.29;20.56
48846;BME280;34665;51.886;5.436;2023-04-30T12:48:23;102107.16;;;44.67;20.58
48846;BME280;34665;51.886;5.436;2023-04-30T12:50:51;102098.72;;;44.53;19.98
48846;BME280;34665;51.886;5.436;2023-04-30T12:53:17;102107.88;;;44.10;20.62
48846;BME280;34665;51.886;5.436;2023-04-30T12:55:43;102109.22;;;44.56;20.06
48846;BME280;34665;51.886;5.436;2023-04-30T12:58:09;102104.34;;;44.38;20.07
48846;BME280;34665;51.886;5.436;2023-04-30T13:00:42;102098.28;;;44.22;20.34
48846;BME280;34665;51.886;5.436;2023-04-30T13:03:08;102098.31;;;44.58;20.68